sensor_id;sensor_type;location;lat;lon;timestamp;pressure;altitude;pressure_sealevel;temperature;humidity
21359;BME280;13506;50.852;20.632;2022-11-02T00:01:17;98528.22;;;14.18;98.49
21359;BME280;13506;50.852;20.632;2022-11-02T00:03:47;98523.91;;;14.17;98.82
21359;BME280;13506;50.852;20.632;2022-11-02T00:06:15;98519.75;;;14.15;99.45
21359;BME280;13506;50.852;20.632;2022-11-02T00:08:43;98521.53;;;14.14;98.70
21359;BME280;13506;50.852;20.632;2022-11-02T00:11:11;98525.91;;;14.14;98.94
21359;BME280;13506;50.852;20.632;2022-11-02T00:13:39;98526.03;;;14.12;98.60
21359;BME280;13506;50.852;20.632;2022-11-02T00:16:09;98526.22;;;14.09;99.20
21359;BME280;13506;50.852;20.632;2022-11-02T00:18:38;98515.75;;;14.09;99.52
21359;BME280;13506;50.852;20.632;2022-11-02T00:21:07;98514.59;;;14.13;99.07
21359;BME280;13506;50.852;20.632;2022-11-02T00:23:35;98517.22;;;14.13;98.98
21359;BME280;13506;50.852;20.632;2022-11-02T00:26:04;98517.56;;;14.09;99.41
21359;BME280;13506;50.852;20.632;2022-11-02T00:28:32;98514.00;;;14.10;99.02
21359;BME280;13506;50.852;20.632;2022-11-02T00:30:59;98523.63;;;14.09;99.43
21359;BME280;13506;50.852;20.632;2022-11-02T00:33:27;98515.03;;;14.07;99.66
21359;BME280;13506;50.852;20.632;2022-11-02T00:35:55;98527.91;;;14.10;98.77
21359;BME280;13506;50.852;20.632;2022-11-02T00:38:24;98519.00;;;14.13;99.29
21359;BME280;13506;50.852;20.632;2022-11-02T00:40:52;98524.34;;;14.11;99.70
21359;BME280;13506;50.852;20.632;2022-11-02T00:43:20;98530.22;;;14.15;98.87
21359;BME280;13506;50.852;20.632;2022-11-02T00:45:48;98536.59;;;14.11;99.60
21359;BME280;13506;50.852;20.632;2022-11-02T00:48:16;98527.91;;;14.10;100.00
21359;BME280;13506;50.852;20.632;2022-11-02T00:50:44;98532.19;;;14.11;100.00
21359;BME280;13506;50.852;20.632;2022-11-02T00:53:12;98531.78;;;14.17;99.11
21359;BME280;13506;50.852;20.632;2022-11-02T00:55:49;98535.94;;;14.20;99.00
21359;BME280;13506;50.852;20.632;2022-11-02T00:58:19;98538.69;;;14.18;99.44
21359;BME280;13506;50.852;20.632;2022-11-02T01:00:49;98538.69;;;14.18;100.00
21359;BME280;13506;50.852;20.632;2022-11-02T01:03:16;98539.63;;;14.17;100.00
21359;BME280;13506;50.852;20.632;2022-11-02T01:05:44;98553.34;;;14.21;99.41
21359;BME280;13506;50.852;20.632;2022-11-02T01:08:12;98543.69;;;14.21;99.67
21359;BME280;13506;50.852;20.632;2022-11-02T01:10:40;98542.88;;;14.21;100.00
21359;BME280;13506;50.852;20.632;2022-11-02T01:13:09;98542.44;;;14.27;100.00
21359;BME280;13506;50.852;20.632;2022-11-02T01:15:39;98529.44;;;14.25;99.98
21359;BME280;13506;50.852;20.632;2022-11-02T01:18:08;98537.41;;;14.24;100.00
21359;BME280;13506;50.852;20.632;2022-11-02T01:20:36;98539.69;;;14.29;100.00
21359;BME280;13506;50.852;20.632;2022-11-02T01:23:04;98542.94;;;14.32;99.87
21359;BME280;13506;50.852;20.632;2022-11-02T01:25:32;98541.06;;;14.34;100.00
21359;BME280;13506;50.852;20.632;2022-11-02T01:27:59;98532.16;;;14.37;100.00
21359;BME280;13506;50.852;20.632;2022-11-02T01:30:28;98537.38;;;14.37;100.00
21359;BME280;13506;50.852;20.632;2022-11-02T01:32:56;98531.94;;;14.40;100.00
21359;BME280;13506;50.852;20.632;2022-11-02T01:35:26;98534.47;;;14.41;100.00
21359;BME280;13506;50.852;20.632;2022-11-02T01:37:54;98530.06;;;14.42;100.00
21359;BME280;13506;50.852;20.632;2022-11-02T01:40:22;98531.59;;;14.44;100.00
21359;BME280;13506;50.852;20.632;2022-11-02T01:42:50;98528.75;;;14.48;100.00
21359;BME280;13506;50.852;20.632;2022-11-02T01:45:18;98533.41;;;14.44;100.00
21359;BME280;13506;50.852;20.632;2022-11-02T01:47:47;98523.75;;;14.44;100.00
21359;BME280;13506;50.852;20.632;2022-11-02T01:50:20;98531.72;;;14.43;100.00
21359;BME280;13506;50.852;20.632;2022-11-02T01:52:49;98540.63;;;14.40;100.00
21359;BME280;13506;50.852;20.632;2022-11-02T01:55:20;98544.78;;;14.43;100.00
21359;BME280;13506;50.852;20.632;2022-11-02T01:57:53;98546.25;;;14.47;100.00
21359;BME280;13506;50.852;20.632;2022-11-02T02:00:22;98555.66;;;14.50;100.00
21359;BME280;13506;50.852;20.632;2022-11-02T02:02:55;98543.22;;;14.53;100.00
21359;BME280;13506;50.852;20.632;2022-11-02T02:05:29;98547.50;;;14.54;100.00
21359;BME280;13506;50.852;20.632;2022-11-02T02:07:57;98551.81;;;14.55;100.00
21359;BME280;13506;50.852;20.632;2022-11-02T02:10:25;98550.75;;;14.58;100.00
21359;BME280;13506;50.852;20.632;2022-11-02T02:12:53;98554.00;;;14.61;100.00
21359;BME280;13506;50.852;20.632;2022-11-02T02:15:26;98549.94;;;14.57;100.00
21359;BME280;13506;50.852;20.632;2022-11-02T02:18:02;98556.38;;;14.64;100.00
21359;BME280;13506;50.852;20.632;2022-11-02T02:21:11;98553.66;;;14.66;100.00
21359;BME280;13506;50.852;20.632;2022-11-02T02:24:16;98550.00;;;14.69;100.00
21359;BME280;13506;50.852;20.632;2022-11-02T02:27:04;98545.47;;;14.71;100.00
21359;BME280;13506;50.852;20.632;2022-11-02T02:29:51;98549.78;;;14.72;100.00
21359;BME280;13506;50.852;20.632;2022-11-02T02:32:27;98543.59;;;14.73;100.00
21359;BME280;13506;50.852;20.632;2022-11-02T02:35:06;98552.16;;;14.75;100.00
21359;BME280;13506;50.852;20.632;2022-11-02T02:37:45;98557.41;;;14.75;100.00
21359;BME280;13506;50.852;20.632;2022-11-02T02:40:21;98556.56;;;14.74;100.00
21359;BME280;13506;50.852;20.632;2022-11-02T02:42:53;98564.94;;;14.79;100.00
21359;BME280;13506;50.852;20.632;2022-11-02T02:45:32;98566.31;;;14.72;100.00
21359;BME280;13506;50.852;20.632;2022-11-02T02:48:09;98550.28;;;14.77;100.00
21359;BME280;13506;50.852;20.632;2022-11-02T02:50:45;98556.25;;;14.79;100.00
21359;BME280;13506;50.852;20.632;2022-11-02T02:53:23;98566.72;;;14.79;100.00
21359;BME280;13506;50.852;20.632;2022-11-02T02:55:54;98562.22;;;14.81;100.00
21359;BME280;13506;50.852;20.632;2022-11-02T02:58:29;98566.28;;;14.85;100.00
21359;BME280;13506;50.852;20.632;2022-11-02T03:01:00;98556.78;;;14.84;100.00
21359;BME280;13506;50.852;20.632;2022-11-02T03:03:30;98564.50;;;14.85;100.00
21359;BME280;13506;50.852;20.632;2022-11-02T03:06:09;98561.78;;;14.87;100.00
21359;BME280;13506;50.852;20.632;2022-11-02T03:08:53;98564.28;;;14.89;100.00
21359;BME280;13506;50.852;20.632;2022-11-02T03:11:25;98572.78;;;14.92;100.00
21359;BME280;13506;50.852;20.632;2022-11-02T03:14:11;98577.16;;;14.92;100.00
21359;BME280;13506;50.852;20.632;2022-11-02T03:17:09;98578.94;;;14.91;100.00
21359;BME280;13506;50.852;20.632;2022-11-02T03:19:50;98585.88;;;14.92;100.00
21359;BME280;13506;50.852;20.632;2022-11-02T03:22:29;98590.38;;;14.90;100.00
21359;BME280;13506;50.852;20.632;2022-11-02T03:25:11;98585.25;;;14.89;100.00
21359;BME280;13506;50.852;20.632;2022-11-02T03:27:49;98586.16;;;14.88;100.00
21359;BME280;13506;50.852;20.632;2022-11-02T03:30:22;98580.72;;;14.91;100.00
21359;BME280;13506;50.852;20.632;2022-11-02T03:32:58;98585.44;;;14.85;100.00
21359;BME280;13506;50.852;20.632;2022-11-02T03:35:34;98585.44;;;14.85;100.00
21359;BME280;13506;50.852;20.632;2022-11-02T03:38:09;98591.53;;;14.86;100.00
21359;BME280;13506;50.852;20.632;2022-11-02T03:40:42;98596.06;;;14.84;100.00
21359;BME280;13506;50.852;20.632;2022-11-02T03:43:13;98594.59;;;14.80;100.00
21359;BME280;13506;50.852;20.632;2022-11-02T03:45:46;98592.81;;;14.80;100.00
21359;BME280;13506;50.852;20.632;2022-11-02T03:48:19;98595.53;;;14.79;100.00
21359;BME280;13506;50.852;20.632;2022-11-02T03:50:49;98591.97;;;14.80;100.00
21359;BME280;13506;50.852;20.632;2022-11-02T03:53:29;98594.59;;;14.80;100.00
21359;BME280;13506;50.852;20.632;2022-11-02T03:56:05;98593.88;;;14.78;100.00
21359;BME280;13506;50.852;20.632;2022-11-02T03:58:37;98594.31;;;14.72;100.00
21359;BME280;13506;50.852;20.632;2022-11-02T04:01:06;98599.53;;;14.72;100.00
21359;BME280;13506;50.852;20.632;2022-11-02T04:03:40;98596.19;;;14.70;100.00
21359;BME280;13506;50.852;20.632;2022-11-02T04:06:09;98600.91;;;14.64;100.00
21359;BME280;13506;50.852;20.632;2022-11-02T04:08:41;98606.03;;;14.66;100.00
21359;BME280;13506;50.852;20.632;2022-11-02T04:11:11;98606.38;;;14.61;100.00
21359;BME280;13506;50.852;20.632;2022-11-02T04:14:03;98601.03;;;14.63;100.00
21359;BME280;13506;50.852;20.632;2022-11-02T04:16:49;98609.00;;;14.61;100.00
21359;BME280;13506;50.852;20.632;2022-11-02T04:19:40;98612.03;;;14.55;100.00
21359;BME280;13506;50.852;20.632;2022-11-02T04:22:09;98603.13;;;14.58;100.00
21359;BME280;13506;50.852;20.632;2022-11-02T04:25:02;98607.94;;;14.51;100.00
21359;BME280;13506;50.852;20.632;2022-11-02T04:28:14;98613.72;;;14.43;100.00
21359;BME280;13506;50.852;20.632;2022-11-02T04:30:48;98607.84;;;14.40;100.00
21359;BME280;13506;50.852;20.632;2022-11-02T04:33:19;98612.34;;;14.38;100.00
21359;BME280;13506;50.852;20.632;2022-11-02T04:36:10;98609.09;;;14.34;100.00
21359;BME280;13506;50.852;20.632;2022-11-02T04:38:42;98611.81;;;14.33;100.00
21359;BME280;13506;50.852;20.632;2022-11-02T04:41:21;98609.31;;;14.31;100.00
21359;BME280;13506;50.852;20.632;2022-11-02T04:44:27;98610.66;;;14.24;100.00
21359;BME280;13506;50.852;20.632;2022-11-02T04:47:00;98616.97;;;14.21;100.00
21359;BME280;13506;50.852;20.632;2022-11-02T04:49:31;98618.84;;;14.19;100.00
21359;BME280;13506;50.852;20.632;2022-11-02T04:52:01;98617.19;;;14.18;100.00
21359;BME280;13506;50.852;20.632;2022-11-02T04:54:31;98621.69;;;14.16;100.00
21359;BME280;13506;50.852;20.632;2022-11-02T04:57:01;98616.97;;;14.21;100.00
21359;BME280;13506;50.852;20.632;2022-11-02T04:59:31;98630.28;;;14.18;100.00
21359;BME280;13506;50.852;20.632;2022-11-02T05:01:59;98631.81;;;14.21;100.00
21359;BME280;13506;50.852;20.632;2022-11-02T05:04:27;98621.38;;;14.21;100.00
21359;BME280;13506;50.852;20.632;2022-11-02T05:06:56;98632.66;;;14.21;100.00
21359;BME280;13506;50.852;20.632;2022-11-02T05:09:25;98627.44;;;14.21;100.00
21359;BME280;13506;50.852;20.632;2022-11-02T05:11:53;98630.88;;;14.22;100.00
21359;BME280;13506;50.852;20.632;2022-11-02T05:14:22;98638.53;;;14.25;100.00
21359;BME280;13506;50.852;20.632;2022-11-02T05:16:50;98633.63;;;14.20;100.00
21359;BME280;13506;50.852;20.632;2022-11-02T05:19:18;98632.47;;;14.24;100.00
21359;BME280;13506;50.852;20.632;2022-11-02T05:21:47;98636.00;;;14.23;100.00
21359;BME280;13506;50.852;20.632;2022-11-02T05:24:15;98636.09;;;14.22;100.00
21359;BME280;13506;50.852;20.632;2022-11-02T05:26:46;98645.41;;;14.26;100.00
21359;BME280;13506;50.852;20.632;2022-11-02T05:29:15;98647.94;;;14.28;100.00
21359;BME280;13506;50.852;20.632;2022-11-02T05:31:42;98647.13;;;14.27;100.00
21359;BME280;13506;50.852;20.632;2022-11-02T05:34:12;98639.34;;;14.25;100.00
21359;BME280;13506;50.852;20.632;2022-11-02T05:36:40;98647.94;;;14.28;100.00
21359;BME280;13506;50.852;20.632;2022-11-02T05:39:08;98658.19;;;14.31;100.00
21359;BME280;13506;50.852;20.632;2022-11-02T05:41:36;98656.22;;;14.34;100.00
21359;BME280;13506;50.852;20.632;2022-11-02T05:44:06;98652.84;;;14.32;100.00
21359;BME280;13506;50.852;20.632;2022-11-02T05:46:37;98673.78;;;14.32;100.00
21359;BME280;13506;50.852;20.632;2022-11-02T05:49:05;98656.31;;;14.33;100.00
21359;BME280;13506;50.852;20.632;2022-11-02T05:51:32;98661.75;;;14.30;100.00
21359;BME280;13506;50.852;20.632;2022-11-02T05:54:00;98665.13;;;14.32;100.00
21359;BME280;13506;50.852;20.632;2022-11-02T05:56:28;98661.44;;;14.34;100.00
21359;BME280;13506;50.852;20.632;2022-11-02T05:58:56;98670.53;;;14.29;100.00
21359;BME280;13506;50.852;20.632;2022-11-02T06:01:25;98671.09;;;14.34;100.00
21359;BME280;13506;50.852;20.632;2022-11-02T06:03:53;98678.94;;;14.34;100.00
21359;BME280;13506;50.852;20.632;2022-11-02T06:06:21;98675.47;;;14.33;100.00
21359;BME280;13506;50.852;20.632;2022-11-02T06:08:49;98681.31;;;14.37;100.00
21359;BME280;13506;50.852;20.632;2022-11-02T06:11:17;98683.00;;;14.38;100.00
21359;BME280;13506;50.852;20.632;2022-11-02T06:13:49;98679.44;;;14.39;100.00
21359;BME280;13506;50.852;20.632;2022-11-02T06:16:17;98689.91;;;14.39;100.00
21359;BME280;13506;50.852;20.632;2022-11-02T06:18:47;98685.09;;;14.33;100.00
21359;BME280;13506;50.852;20.632;2022-11-02T06:21:15;98692.13;;;14.32;100.00
21359;BME280;13506;50.852;20.632;2022-11-02T06:23:46;98695.38;;;14.36;100.00
21359;BME280;13506;50.852;20.632;2022-11-02T06:26:14;98688.44;;;14.35;100.00
21359;BME280;13506;50.852;20.632;2022-11-02T06:28:42;98699.13;;;14.32;100.00
21359;BME280;13506;50.852;20.632;2022-11-02T06:31:10;98701.53;;;14.35;100.00
21359;BME280;13506;50.852;20.632;2022-11-02T06:33:38;98698.72;;;14.38;100.00
21359;BME280;13506;50.852;20.632;2022-11-02T06:36:09;98699.88;;;14.34;100.00
21359;BME280;13506;50.852;20.632;2022-11-02T06:38:37;98701.34;;;14.38;100.00
21359;BME280;13506;50.852;20.632;2022-11-02T06:41:05;98700.78;;;14.33;100.00
21359;BME280;13506;50.852;20.632;2022-11-02T06:43:34;98699.31;;;14.29;100.00
21359;BME280;13506;50.852;20.632;2022-11-02T06:46:04;98699.53;;;14.25;100.00
21359;BME280;13506;50.852;20.632;2022-11-02T06:48:32;98711.81;;;14.25;100.00
21359;BME280;13506;50.852;20.632;2022-11-02T06:51:00;98706.34;;;14.28;100.00
21359;BME280;13506;50.852;20.632;2022-11-02T06:53:30;98707.19;;;14.29;100.00
21359;BME280;13506;50.852;20.632;2022-11-02T06:55:58;98708.22;;;14.26;100.00
21359;BME280;13506;50.852;20.632;2022-11-02T06:58:27;98709.69;;;14.30;100.00
21359;BME280;13506;50.852;20.632;2022-11-02T07:01:00;98707.00;;;14.32;100.00
21359;BME280;13506;50.852;20.632;2022-11-02T07:03:29;98702.41;;;14.35;100.00
21359;BME280;13506;50.852;20.632;2022-11-02T07:05:57;98713.69;;;14.36;100.00
21359;BME280;13506;50.852;20.632;2022-11-02T07:08:26;98706.47;;;14.39;100.00
21359;BME280;13506;50.852;20.632;2022-11-02T07:10:56;98709.50;;;14.46;100.00
21359;BME280;13506;50.852;20.632;2022-11-02T07:13:24;98711.72;;;14.52;100.00
21359;BME280;13506;50.852;20.632;2022-11-02T07:15:53;98710.66;;;14.55;100.00
21359;BME280;13506;50.852;20.632;2022-11-02T07:18:22;98703.47;;;14.58;100.00
21359;BME280;13506;50.852;20.632;2022-11-02T07:20:49;98717.06;;;14.63;100.00
21359;BME280;13506;50.852;20.632;2022-11-02T07:23:17;98716.75;;;14.68;100.00
21359;BME280;13506;50.852;20.632;2022-11-02T07:25:49;98713.72;;;14.74;100.00
21359;BME280;13506;50.852;20.632;2022-11-02T07:28:18;98718.53;;;14.80;100.00
21359;BME280;13506;50.852;20.632;2022-11-02T07:30:46;98708.78;;;14.82;100.00
21359;BME280;13506;50.852;20.632;2022-11-02T07:33:14;98714.31;;;14.91;100.00
21359;BME280;13506;50.852;20.632;2022-11-02T07:35:42;98709.69;;;14.94;100.00
21359;BME280;13506;50.852;20.632;2022-11-02T07:38:10;98708.03;;;14.93;100.00
21359;BME280;13506;50.852;20.632;2022-11-02T07:40:38;98711.16;;;14.98;100.00
21359;BME280;13506;50.852;20.632;2022-11-02T07:43:06;98700.47;;;15.01;100.00
21359;BME280;13506;50.852;20.632;2022-11-02T07:46:13;98703.00;;;15.03;100.00
21359;BME280;13506;50.852;20.632;2022-11-02T07:48:42;98703.00;;;15.03;100.00
21359;BME280;13506;50.852;20.632;2022-11-02T07:51:10;98701.69;;;15.09;100.00
21359;BME280;13506;50.852;20.632;2022-11-02T07:53:39;98696.47;;;15.09;100.00
21359;BME280;13506;50.852;20.632;2022-11-02T07:56:07;98698.16;;;15.10;100.00
21359;BME280;13506;50.852;20.632;2022-11-02T07:58:35;98706.50;;;15.15;100.00
21359;BME280;13506;50.852;20.632;2022-11-02T08:01:06;98694.13;;;15.17;100.00
21359;BME280;13506;50.852;20.632;2022-11-02T08:03:35;98709.66;;;15.20;100.00
21359;BME280;13506;50.852;20.632;2022-11-02T08:06:03;98694.88;;;15.19;100.00
21359;BME280;13506;50.852;20.632;2022-11-02T08:08:31;98698.31;;;15.19;100.00
21359;BME280;13506;50.852;20.632;2022-11-02T08:11:04;98702.72;;;15.19;100.00
21359;BME280;13506;50.852;20.632;2022-11-02T08:13:33;98706.06;;;15.21;100.00
21359;BME280;13506;50.852;20.632;2022-11-02T08:16:01;98694.75;;;15.20;100.00
21359;BME280;13506;50.852;20.632;2022-11-02T08:18:50;98699.66;;;15.25;100.00
21359;BME280;13506;50.852;20.632;2022-11-02T08:21:18;98698.84;;;15.24;100.00
21359;BME280;13506;50.852;20.632;2022-11-02T08:23:46;98696.09;;;15.26;100.00
21359;BME280;13506;50.852;20.632;2022-11-02T08:26:14;98697.06;;;15.25;100.00
21359;BME280;13506;50.852;20.632;2022-11-02T08:28:42;98694.09;;;15.30;100.00
21359;BME280;13506;50.852;20.632;2022-11-02T08:31:14;98695.44;;;15.35;100.00
21359;BME280;13506;50.852;20.632;2022-11-02T08:33:43;98686.31;;;15.41;100.00
21359;BME280;13506;50.852;20.632;2022-11-02T08:36:12;98689.88;;;15.40;100.00
21359;BME280;13506;50.852;20.632;2022-11-02T08:38:40;98685.72;;;15.48;100.00
21359;BME280;13506;50.852;20.632;2022-11-02T08:41:08;98685.63;;;15.50;100.00
21359;BME280;13506;50.852;20.632;2022-11-02T08:43:36;98692.72;;;15.61;100.00
21359;BME280;13506;50.852;20.632;2022-11-02T08:46:04;98697.72;;;15.64;99.95
21359;BME280;13506;50.852;20.632;2022-11-02T08:48:32;98689.63;;;15.67;100.00
21359;BME280;13506;50.852;20.632;2022-11-02T08:51:00;98690.16;;;15.72;100.00
21359;BME280;13506;50.852;20.632;2022-11-02T08:53:32;98690.69;;;15.77;100.00
21359;BME280;13506;50.852;20.632;2022-11-02T08:56:00;98689.72;;;15.78;100.00
21359;BME280;13506;50.852;20.632;2022-11-02T08:58:28;98697.13;;;15.84;99.92
21359;BME280;13506;50.852;20.632;2022-11-02T09:00:56;98692.00;;;15.83;99.60
21359;BME280;13506;50.852;20.632;2022-11-02T09:03:25;98693.06;;;15.80;99.53
21359;BME280;13506;50.852;20.632;2022-11-02T09:05:57;98687.59;;;15.83;99.44
21359;BME280;13506;50.852;20.632;2022-11-02T09:08:26;98694.38;;;15.75;99.27
21359;BME280;13506;50.852;20.632;2022-11-02T09:10:59;98694.94;;;15.78;99.66
21359;BME280;13506;50.852;20.632;2022-11-02T09:13:28;98686.72;;;15.72;99.33
21359;BME280;13506;50.852;20.632;2022-11-02T09:15:58;98691.41;;;15.79;99.36
21359;BME280;13506;50.852;20.632;2022-11-02T09:18:27;98694.63;;;15.83;99.24
21359;BME280;13506;50.852;20.632;2022-11-02T09:20:55;98688.53;;;15.82;98.97
21359;BME280;13506;50.852;20.632;2022-11-02T09:23:23;98690.44;;;15.80;99.47
21359;BME280;13506;50.852;20.632;2022-11-02T09:25:51;98695.56;;;15.82;99.29
21359;BME280;13506;50.852;20.632;2022-11-02T09:28:20;98691.88;;;15.84;99.25
21359;BME280;13506;50.852;20.632;2022-11-02T09:30:48;98687.47;;;15.85;99.06
21359;BME280;13506;50.852;20.632;2022-11-02T09:33:17;98695.03;;;15.90;98.99
21359;BME280;13506;50.852;20.632;2022-11-02T09:35:47;98689.78;;;15.90;98.57
21359;BME280;13506;50.852;20.632;2022-11-02T09:38:16;98690.25;;;15.95;98.57
21359;BME280;13506;50.852;20.632;2022-11-02T09:40:51;98687.63;;;15.95;98.20
21359;BME280;13506;50.852;20.632;2022-11-02T09:43:41;98688.09;;;16.00;98.21
21359;BME280;13506;50.852;20.632;2022-11-02T09:46:17;98695.97;;;16.00;98.57
21359;BME280;13506;50.852;20.632;2022-11-02T09:48:52;98694.31;;;15.99;98.47
21359;BME280;13506;50.852;20.632;2022-11-02T09:51:24;98683.25;;;16.06;97.93
21359;BME280;13506;50.852;20.632;2022-11-02T09:54:02;98691.88;;;16.20;98.70
21359;BME280;13506;50.852;20.632;2022-11-02T09:56:33;98686.88;;;16.28;97.61
21359;BME280;13506;50.852;20.632;2022-11-02T09:59:10;98688.69;;;16.39;97.63
21359;BME280;13506;50.852;20.632;2022-11-02T10:01:52;98683.69;;;16.47;97.56
21359;BME280;13506;50.852;20.632;2022-11-02T10:05:09;98684.41;;;16.49;96.37
21359;BME280;13506;50.852;20.632;2022-11-02T10:07:59;98679.63;;;16.77;97.15
21359;BME280;13506;50.852;20.632;2022-11-02T10:10:35;98671.25;;;17.05;95.54
21359;BME280;13506;50.852;20.632;2022-11-02T10:13:18;98682.41;;;17.74;97.72
21359;BME280;13506;50.852;20.632;2022-11-02T10:15:55;98682.91;;;18.72;97.49
21359;BME280;13506;50.852;20.632;2022-11-02T10:18:26;98666.63;;;19.68;92.47
21359;BME280;13506;50.852;20.632;2022-11-02T10:20:58;98667.22;;;20.48;85.52
21359;BME280;13506;50.852;20.632;2022-11-02T10:23:31;98670.22;;;21.28;83.93
21359;BME280;13506;50.852;20.632;2022-11-02T10:26:01;98674.88;;;21.44;78.30
21359;BME280;13506;50.852;20.632;2022-11-02T10:28:33;98683.34;;;21.47;78.00
21359;BME280;13506;50.852;20.632;2022-11-02T10:31:03;98676.72;;;21.61;74.09
21359;BME280;13506;50.852;20.632;2022-11-02T10:33:31;98691.22;;;21.75;74.06
21359;BME280;13506;50.852;20.632;2022-11-02T10:36:24;98681.00;;;21.62;74.88
21359;BME280;13506;50.852;20.632;2022-11-02T10:39:09;98680.78;;;21.55;75.38
21359;BME280;13506;50.852;20.632;2022-11-02T10:41:57;98673.53;;;21.58;75.65
21359;BME280;13506;50.852;20.632;2022-11-02T10:44:51;98669.25;;;22.01;75.96
21359;BME280;13506;50.852;20.632;2022-11-02T10:47:31;98673.66;;;22.18;71.91
21359;BME280;13506;50.852;20.632;2022-11-02T10:50:24;98665.16;;;22.06;72.54
21359;BME280;13506;50.852;20.632;2022-11-02T10:53:00;98665.81;;;22.26;72.19
21359;BME280;13506;50.852;20.632;2022-11-02T10:55:35;98661.44;;;22.43;71.64
21359;BME280;13506;50.852;20.632;2022-11-02T10:58:11;98659.06;;;22.32;69.87
21359;BME280;13506;50.852;20.632;2022-11-02T11:00:42;98661.28;;;22.19;70.77
21359;BME280;13506;50.852;20.632;2022-11-02T11:03:14;98665.22;;;21.96;70.62
21359;BME280;13506;50.852;20.632;2022-11-02T11:05:58;98662.75;;;21.77;70.76
21359;BME280;13506;50.852;20.632;2022-11-02T11:08:38;98661.84;;;21.50;71.00
21359;BME280;13506;50.852;20.632;2022-11-02T11:11:16;98659.78;;;21.26;71.38
21359;BME280;13506;50.852;20.632;2022-11-02T11:13:53;98652.50;;;21.10;71.96
21359;BME280;13506;50.852;20.632;2022-11-02T11:16:38;98658.19;;;20.88;72.66
21359;BME280;13506;50.852;20.632;2022-11-02T11:19:32;98656.91;;;20.64;73.60
21359;BME280;13506;50.852;20.632;2022-11-02T11:22:00;98650.44;;;20.39;74.16
21359;BME280;13506;50.852;20.632;2022-11-02T11:24:30;98648.66;;;20.20;74.14
21359;BME280;13506;50.852;20.632;2022-11-02T11:27:18;98643.69;;;20.17;75.53
21359;BME280;13506;50.852;20.632;2022-11-02T11:29:53;98643.00;;;20.15;76.02
21359;BME280;13506;50.852;20.632;2022-11-02T11:32:24;98641.75;;;20.09;75.75
21359;BME280;13506;50.852;20.632;2022-11-02T11:34:58;98638.78;;;20.22;76.25
21359;BME280;13506;50.852;20.632;2022-11-02T11:37:27;98632.88;;;20.38;75.29
21359;BME280;13506;50.852;20.632;2022-11-02T11:39:59;98634.25;;;20.52;75.40
21359;BME280;13506;50.852;20.632;2022-11-02T11:42:31;98637.47;;;20.46;74.18
21359;BME280;13506;50.852;20.632;2022-11-02T11:45:05;98636.53;;;20.37;74.18
21359;BME280;13506;50.852;20.632;2022-11-02T11:47:36;98627.41;;;20.22;74.33
21359;BME280;13506;50.852;20.632;2022-11-02T11:50:14;98630.50;;;20.07;73.91
21359;BME280;13506;50.852;20.632;2022-11-02T11:52:42;98633.81;;;20.09;74.54
21359;BME280;13506;50.852;20.632;2022-11-02T11:55:22;98629.38;;;20.10;74.39
21359;BME280;13506;50.852;20.632;2022-11-02T11:58:13;98620.31;;;20.12;74.04
21359;BME280;13506;50.852;20.632;2022-11-02T12:00:42;98623.66;;;20.14;73.73
21359;BME280;13506;50.852;20.632;2022-11-02T12:03:12;98624.03;;;20.29;71.46
21359;BME280;13506;50.852;20.632;2022-11-02T12:05:54;98617.69;;;20.60;71.86
21359;BME280;13506;50.852;20.632;2022-11-02T12:08:36;98625.56;;;20.69;69.90
21359;BME280;13506;50.852;20.632;2022-11-02T12:11:27;98622.19;;;20.77;66.93
21359;BME280;13506;50.852;20.632;2022-11-02T12:14:13;98627.00;;;20.64;67.63
21359;BME280;13506;50.852;20.632;2022-11-02T12:17:17;98629.91;;;20.51;67.01
21359;BME280;13506;50.852;20.632;2022-11-02T12:20:05;98629.31;;;20.29;66.91
21359;BME280;13506;50.852;20.632;2022-11-02T12:22:54;98639.25;;;20.08;67.83
21359;BME280;13506;50.852;20.632;2022-11-02T12:25:36;98631.75;;;19.93;68.28
21359;BME280;13506;50.852;20.632;2022-11-02T12:28:22;98633.59;;;19.73;68.75
21359;BME280;13506;50.852;20.632;2022-11-02T12:31:02;98625.50;;;19.56;68.81
21359;BME280;13506;50.852;20.632;2022-11-02T12:33:45;98628.69;;;19.40;69.19
21359;BME280;13506;50.852;20.632;2022-11-02T12:36:40;98627.59;;;19.42;69.70
21359;BME280;13506;50.852;20.632;2022-11-02T12:39:21;98617.75;;;19.35;69.66
21359;BME280;13506;50.852;20.632;2022-11-02T12:42:19;98628.97;;;19.27;69.99
21359;BME280;13506;50.852;20.632;2022-11-02T12:45:05;98630.47;;;19.20;70.05
21359;BME280;13506;50.852;20.632;2022-11-02T12:47:47;98630.59;;;19.08;69.90
21359;BME280;13506;50.852;20.632;2022-11-02T12:50:24;98616.56;;;18.88;70.88
21359;BME280;13506;50.852;20.632;2022-11-02T12:53:14;98616.56;;;18.98;71.09
21359;BME280;13506;50.852;20.632;2022-11-02T12:55:51;98620.09;;;19.18;71.31
21359;BME280;13506;50.852;20.632;2022-11-02T12:58:24;98615.22;;;19.33;70.01
21359;BME280;13506;50.852;20.632;2022-11-02T13:01:01;98621.47;;;19.61;70.13
21359;BME280;13506;50.852;20.632;2022-11-02T13:03:38;98618.41;;;19.85;68.83
21359;BME280;13506;50.852;20.632;2022-11-02T13:06:16;98618.53;;;19.93;67.81
21359;BME280;13506;50.852;20.632;2022-11-02T13:08:51;98621.88;;;20.05;67.17
21359;BME280;13506;50.852;20.632;2022-11-02T13:11:26;98621.88;;;20.05;67.04
21359;BME280;13506;50.852;20.632;2022-11-02T13:13:57;98622.13;;;20.12;64.42
21359;BME280;13506;50.852;20.632;2022-11-02T13:16:36;98621.13;;;20.23;65.63